createdAt,value
2022-12-04T00:04:45.712Z,13.13
2022-12-04T00:09:47.069Z,12.73
2022-12-04T00:15:23.432Z,13.05
2022-12-04T00:20:10.010Z,12.20
2022-12-04T00:25:11.380Z,12.38
2022-12-04T00:30:13.149Z,12.15
2022-12-04T00:35:14.653Z,11.68
2022-12-04T00:40:16.139Z,12.85
2022-12-04T00:45:17.497Z,13.07
2022-12-04T00:50:18.884Z,12.13
2022-12-04T00:55:22.338Z,12.80
2022-12-04T01:00:24.074Z,13.10
2022-12-04T01:05:25.494Z,12.30
2022-12-04T01:10:26.877Z,13.07
2022-12-04T01:15:28.170Z,12.80
2022-12-04T01:20:29.545Z,12.68
2022-12-04T01:25:31.007Z,12.25
2022-12-04T01:30:32.359Z,14.13
2022-12-04T01:35:33.806Z,12.63
2022-12-04T01:40:35.126Z,12.07
2022-12-04T01:45:47.749Z,12.00
2022-12-04T01:50:51.924Z,12.27
2022-12-04T01:55:53.874Z,12.87
2022-12-04T02:01:03.752Z,13.10
2022-12-04T02:06:07.971Z,12.60
2022-12-04T02:11:37.905Z,12.43
2022-12-04T02:16:48.385Z,13.30
2022-12-04T02:21:55.333Z,12.25
2022-12-04T02:27:09.715Z,12.25
2022-12-04T02:32:20.266Z,12.00
2022-12-04T02:37:34.227Z,11.43
2022-12-04T02:42:43.690Z,11.63
2022-12-04T02:47:46.403Z,11.85
2022-12-04T02:52:57.326Z,11.45
2022-12-04T02:58:04.549Z,12.45
2022-12-04T03:03:11.139Z,12.57
2022-12-04T03:08:19.615Z,11.95
2022-12-04T03:13:30.787Z,11.80
2022-12-04T03:18:37.639Z,11.90
2022-12-04T03:23:54.934Z,12.43
2022-12-04T03:29:18.163Z,12.68
2022-12-04T03:34:32.595Z,13.27
2022-12-04T03:39:43.888Z,12.73
2022-12-04T03:45:02.016Z,12.15
2022-12-04T03:50:13.921Z,12.70
2022-12-04T03:55:23.672Z,12.30
2022-12-04T04:00:25.291Z,12.48
2022-12-04T04:05:29.885Z,13.25
2022-12-04T04:10:31.264Z,11.32
2022-12-04T04:15:51.736Z,12.00
2022-12-04T04:21:17.970Z,12.05
2022-12-04T04:26:19.609Z,12.40
2022-12-04T04:31:45.216Z,12.85
2022-12-04T04:37:11.306Z,11.88
2022-12-04T04:42:30.168Z,12.27
2022-12-04T04:47:38.284Z,12.75
2022-12-04T04:52:44.164Z,11.82
2022-12-04T04:57:45.594Z,11.80
2022-12-04T05:02:48.558Z,12.38
2022-12-04T05:07:50.123Z,12.35
2022-12-04T05:12:51.507Z,12.82
2022-12-04T05:17:52.819Z,13.13
2022-12-04T05:22:54.102Z,12.88
2022-12-04T05:27:55.396Z,11.73
2022-12-04T05:32:57.056Z,12.55
2022-12-04T05:37:58.450Z,12.00
2022-12-04T05:42:59.805Z,11.38
2022-12-04T05:48:01.193Z,12.57
2022-12-04T05:53:02.648Z,12.63
2022-12-04T05:58:04.510Z,11.68
2022-12-04T06:03:05.931Z,10.63
2022-12-04T06:08:07.426Z,11.38
2022-12-04T06:13:08.856Z,11.77
2022-12-04T06:18:10.151Z,12.07
2022-12-04T06:23:11.487Z,11.07
2022-12-04T06:28:12.770Z,11.93
2022-12-04T06:33:14.106Z,12.10
2022-12-04T06:38:15.395Z,11.68
2022-12-04T06:43:16.680Z,10.77
2022-12-04T06:48:18.011Z,11.55
2022-12-04T06:53:20.397Z,11.05
2022-12-04T06:58:21.703Z,11.13
2022-12-04T07:03:24.763Z,10.73
2022-12-04T07:08:26.039Z,11.35
2022-12-04T07:13:27.352Z,11.27
2022-12-04T07:18:30.187Z,10.48
2022-12-04T07:23:31.477Z,10.80
2022-12-04T07:28:33.427Z,10.63
2022-12-04T07:33:35.749Z,10.65
2022-12-04T07:38:37.120Z,10.18
2022-12-04T07:43:39.076Z,10.50
2022-12-04T07:48:40.962Z,10.90
2022-12-04T07:53:42.534Z,10.60
2022-12-04T07:58:44.126Z,11.32
2022-12-04T08:03:48.534Z,10.65
2022-12-04T08:08:50.558Z,11.40
2022-12-04T08:13:57.176Z,10.75
2022-12-04T08:18:59.603Z,12.07
2022-12-04T08:24:01.738Z,11.10
2022-12-04T08:29:04.464Z,11.00
2022-12-04T08:34:07.625Z,11.18
2022-12-04T08:39:11.236Z,11.82
2022-12-04T08:44:12.616Z,12.18
2022-12-04T08:49:14.165Z,12.18
2022-12-04T08:54:15.481Z,11.55
2022-12-04T08:59:16.842Z,13.05
2022-12-04T09:04:19.013Z,13.93
2022-12-04T09:09:20.319Z,12.95
2022-12-04T09:14:25.669Z,12.82
2022-12-04T09:19:26.993Z,13.45
2022-12-04T09:24:30.336Z,15.18
2022-12-04T09:29:32.456Z,13.25
2022-12-04T09:34:33.796Z,14.07
2022-12-04T09:39:35.233Z,14.23
2022-12-04T09:44:44.082Z,14.23
2022-12-04T09:50:10.167Z,14.80
2022-12-04T09:55:17.896Z,13.55
2022-12-04T10:00:20.282Z,13.88
2022-12-04T10:05:31.963Z,14.40
2022-12-04T10:10:33.284Z,14.18
2022-12-04T10:15:46.911Z,15.75
2022-12-04T10:21:23.602Z,14.20
2022-12-04T10:26:33.098Z,17.23
2022-12-04T10:31:37.745Z,15.40
2022-12-04T10:36:40.072Z,15.07
2022-12-04T10:41:51.957Z,14.98
2022-12-04T10:47:01.941Z,14.82
2022-12-04T10:52:04.703Z,15.02
2022-12-04T10:57:08.841Z,14.45
2022-12-04T11:02:32.637Z,15.17
2022-12-04T11:07:37.083Z,14.27
2022-12-04T11:12:38.540Z,15.32
2022-12-04T11:17:40.033Z,14.43
2022-12-04T11:22:50.872Z,13.85
2022-12-04T11:27:55.675Z,13.60
2022-12-04T11:32:57.911Z,13.65
2022-12-04T11:38:09.756Z,13.13
2022-12-04T11:43:15.458Z,13.32
2022-12-04T11:48:18.381Z,13.65
2022-12-04T11:53:28.815Z,12.52
2022-12-04T11:58:44.884Z,13.57
2022-12-04T12:04:14.277Z,13.05
2022-12-04T12:09:35.729Z,13.70
2022-12-04T12:14:54.193Z,12.75
2022-12-04T12:20:13.063Z,13.77
2022-12-04T12:25:50.381Z,12.55
2022-12-04T12:31:22.297Z,14.15
2022-12-04T12:36:27.039Z,11.68
2022-12-04T12:41:41.536Z,13.52
2022-12-04T12:46:51.482Z,12.17
2022-12-04T12:52:01.470Z,12.27
2022-12-04T12:57:10.254Z,12.35
2022-12-04T13:02:28.367Z,12.73
2022-12-04T13:07:47.651Z,12.65
2022-12-04T13:12:57.969Z,11.88
2022-12-04T13:18:00.252Z,13.07
2022-12-04T13:23:36.822Z,12.55
2022-12-04T13:29:01.490Z,13.27
2022-12-04T13:34:18.164Z,14.93
2022-12-04T13:39:48.644Z,13.68
2022-12-04T13:44:56.169Z,14.85
2022-12-04T13:50:31.648Z,13.77
2022-12-04T13:55:35.498Z,14.30
2022-12-04T14:00:42.230Z,12.88
2022-12-04T14:05:47.457Z,12.75
2022-12-04T14:11:04.381Z,13.90
2022-12-04T14:16:42.100Z,13.10
2022-12-04T14:21:46.099Z,13.10
2022-12-04T14:32:23.387Z,12.30
2022-12-04T14:37:40.243Z,13.07
2022-12-04T14:42:41.684Z,14.75
2022-12-04T14:48:10.571Z,13.50
2022-12-04T14:53:35.194Z,14.32
2022-12-04T14:58:38.887Z,14.23
2022-12-04T15:03:44.717Z,13.85
2022-12-04T15:08:51.139Z,16.02
2022-12-04T15:13:52.499Z,14.25
2022-12-04T15:18:58.416Z,19.60
2022-12-04T15:23:59.873Z,14.60
2022-12-04T15:29:04.579Z,13.05
2022-12-04T15:34:13.586Z,12.82
2022-12-04T15:39:22.548Z,13.85
2022-12-04T15:44:28.794Z,14.18
2022-12-04T15:49:32.511Z,14.73
2022-12-04T15:54:36.311Z,15.77
2022-12-04T15:59:37.927Z,14.35
2022-12-04T16:04:44.078Z,13.88
2022-12-04T16:09:52.672Z,13.93
2022-12-04T16:14:55.942Z,14.05
2022-12-04T16:19:58.611Z,14.38
2022-12-04T16:25:00.452Z,15.23
2022-12-04T16:30:01.932Z,14.07
2022-12-04T16:35:03.287Z,14.75
2022-12-04T16:40:06.420Z,15.07
2022-12-04T16:45:22.412Z,14.98
2022-12-04T16:50:24.817Z,15.00
2022-12-04T16:55:35.348Z,15.57
2022-12-04T17:00:36.755Z,15.23
2022-12-04T17:05:38.147Z,16.83
2022-12-04T17:10:39.690Z,15.52
2022-12-04T17:15:40.977Z,14.73
2022-12-04T17:20:43.457Z,16.02
2022-12-04T17:25:44.882Z,15.50
2022-12-04T17:30:46.686Z,15.77
2022-12-04T17:35:48.011Z,14.65
2022-12-04T17:41:01.020Z,15.20
2022-12-04T17:46:09.405Z,16.50
2022-12-04T17:51:22.409Z,18.80
2022-12-04T17:56:24.592Z,14.15
2022-12-04T18:01:28.920Z,14.93
2022-12-04T18:06:36.790Z,14.23
2022-12-04T18:11:42.136Z,14.43
2022-12-04T18:16:52.936Z,14.70
2022-12-04T18:21:55.319Z,13.77
2022-12-04T18:26:56.737Z,14.32
2022-12-04T18:31:58.168Z,13.93
2022-12-04T18:36:59.841Z,18.23
2022-12-04T18:42:01.362Z,13.80
2022-12-04T18:47:02.664Z,14.82
2022-12-04T18:52:04.114Z,15.27
2022-12-04T18:57:05.517Z,14.18
2022-12-04T19:02:07.082Z,12.65
2022-12-04T19:07:08.398Z,15.23
2022-12-04T19:12:09.896Z,14.35
2022-12-04T19:17:11.567Z,14.65
2022-12-04T19:22:13.329Z,15.55
2022-12-04T19:27:15.166Z,15.10
2022-12-04T19:32:16.537Z,14.95
2022-12-04T19:37:18.629Z,15.88
2022-12-04T19:42:20.247Z,14.30
2022-12-04T19:47:21.567Z,15.93
2022-12-04T19:52:23.158Z,14.63
2022-12-04T19:57:24.517Z,14.43
2022-12-04T20:02:26.141Z,14.85
2022-12-04T20:07:27.551Z,14.50
2022-12-04T20:12:29.132Z,14.43
2022-12-04T20:17:31.326Z,15.15
2022-12-04T20:22:34.841Z,14.88
2022-12-04T20:27:36.224Z,15.25
2022-12-04T20:32:37.685Z,16.52
2022-12-04T20:37:39.183Z,16.40
2022-12-04T20:42:40.705Z,14.93
2022-12-04T20:47:42.193Z,15.30
2022-12-04T20:52:43.513Z,15.25
2022-12-04T20:57:45.015Z,14.68
2022-12-04T21:02:47.803Z,15.60
2022-12-04T21:07:50.212Z,14.70
2022-12-04T21:13:10.219Z,15.60
2022-12-04T21:18:11.567Z,15.98
2022-12-04T21:23:12.912Z,15.60
2022-12-04T21:28:14.306Z,14.25
2022-12-04T21:33:16.375Z,14.95
2022-12-04T21:38:17.746Z,15.88
2022-12-04T21:43:19.125Z,14.85
2022-12-04T21:48:20.396Z,14.90
2022-12-04T21:53:22.582Z,15.63
2022-12-04T21:58:26.572Z,14.05
2022-12-04T22:03:28.038Z,15.13
2022-12-04T22:08:29.431Z,15.95
2022-12-04T22:13:30.882Z,15.50
2022-12-04T22:18:33.840Z,14.27
2022-12-04T22:23:35.944Z,15.98
2022-12-04T22:28:37.724Z,15.13
2022-12-04T22:33:39.528Z,15.43
2022-12-04T22:39:06.010Z,14.65
2022-12-04T22:44:02.917Z,16.08
2022-12-04T22:49:04.283Z,15.43
2022-12-04T22:54:07.865Z,15.05
2022-12-04T22:59:09.213Z,14.85
2022-12-04T23:04:10.548Z,14.02
2022-12-04T23:09:14.470Z,14.80
2022-12-04T23:14:15.955Z,15.82
2022-12-04T23:19:18.896Z,14.23
2022-12-04T23:24:20.241Z,15.07
2022-12-04T23:29:52.315Z,14.55
2022-12-04T23:34:42.934Z,14.50
2022-12-04T23:39:44.341Z,15.23
2022-12-04T23:44:45.954Z,13.52
2022-12-04T23:49:47.245Z,16.15
2022-12-04T23:54:48.600Z,14.25
2022-12-04T23:59:51.704Z,14.93
